createdAt,value
2022-09-28T00:00:08.942Z,10.90
2022-09-28T00:00:18.405Z,10.90
2022-09-28T00:00:27.806Z,10.90
2022-09-28T00:00:37.237Z,10.90
2022-09-28T00:00:46.658Z,10.90
2022-09-28T00:00:56.052Z,10.80
2022-09-28T00:01:05.467Z,10.90
2022-09-28T00:01:14.883Z,10.90
2022-09-28T00:01:24.397Z,10.90
2022-09-28T00:01:43.290Z,10.90
2022-09-28T00:01:52.694Z,10.90
2022-09-28T00:02:02.082Z,10.90
2022-09-28T00:02:11.631Z,10.90
2022-09-28T00:02:21.037Z,10.90
2022-09-28T00:02:30.435Z,10.90
2022-09-28T00:02:39.791Z,10.90
2022-09-28T00:02:49.192Z,10.90
2022-09-28T00:02:58.567Z,10.80
2022-09-28T00:03:08.020Z,11.00
2022-09-28T00:03:17.374Z,10.90
2022-09-28T00:03:26.772Z,10.90
2022-09-28T00:03:36.233Z,10.90
2022-09-28T00:03:45.622Z,10.80
2022-09-28T00:03:55.025Z,10.90
2022-09-28T00:04:04.435Z,10.90
2022-09-28T00:04:23.480Z,10.90
2022-09-28T00:04:32.883Z,10.80
2022-09-28T00:04:42.293Z,10.80
2022-09-28T00:04:51.708Z,10.80
2022-09-28T00:05:01.123Z,10.80
2022-09-28T00:05:10.555Z,10.80
2022-09-28T00:05:19.982Z,10.80
2022-09-28T00:05:29.388Z,10.80
2022-09-28T00:05:38.808Z,10.80
2022-09-28T00:05:48.198Z,10.80
2022-09-28T00:05:57.592Z,10.90
2022-09-28T00:06:07.004Z,10.80
2022-09-28T00:06:16.408Z,10.80
2022-09-28T00:06:25.901Z,10.80
2022-09-28T00:06:35.311Z,10.90
2022-09-28T00:06:44.714Z,10.90
2022-09-28T00:06:54.109Z,10.80
2022-09-28T00:07:13.257Z,10.80
2022-09-28T00:07:22.663Z,10.80
2022-09-28T00:07:32.093Z,10.80
2022-09-28T00:07:41.498Z,10.80
2022-09-28T00:07:50.910Z,10.80
2022-09-28T00:08:00.326Z,10.80
2022-09-28T00:08:09.778Z,10.80
2022-09-28T00:08:19.210Z,10.80
2022-09-28T00:08:28.687Z,10.80
2022-09-28T00:08:38.083Z,10.80
2022-09-28T00:08:47.537Z,10.80
2022-09-28T00:08:56.956Z,10.80
2022-09-28T00:09:06.376Z,10.80
2022-09-28T00:09:15.801Z,10.80
2022-09-28T00:09:25.216Z,10.80
2022-09-28T00:09:34.636Z,10.80
2022-09-28T00:09:53.478Z,10.90
2022-09-28T00:10:02.871Z,10.80
2022-09-28T00:10:12.286Z,10.90
2022-09-28T00:10:21.702Z,10.90
2022-09-28T00:10:31.121Z,10.90
2022-09-28T00:10:40.542Z,10.90
2022-09-28T00:10:49.967Z,10.90
2022-09-28T00:10:59.375Z,10.90
2022-09-28T00:11:08.774Z,10.90
2022-09-28T00:11:18.194Z,10.90
2022-09-28T00:11:27.592Z,10.90
2022-09-28T00:11:37.006Z,10.90
2022-09-28T00:11:46.773Z,10.90
2022-09-28T00:11:56.193Z,10.90
2022-09-28T00:12:05.643Z,10.90
2022-09-28T00:12:15.071Z,10.90
2022-09-28T00:12:24.479Z,10.90
2022-09-28T00:12:43.307Z,10.90
2022-09-28T00:12:52.727Z,10.90
2022-09-28T00:13:02.129Z,10.80
2022-09-28T00:13:11.784Z,10.90
2022-09-28T00:13:21.210Z,10.80
2022-09-28T00:13:30.578Z,10.80
2022-09-28T00:13:40.003Z,10.80
2022-09-28T00:13:49.410Z,10.80
2022-09-28T00:13:58.822Z,10.80
2022-09-28T00:14:08.236Z,10.80
2022-09-28T00:14:17.654Z,10.80
2022-09-28T00:14:27.063Z,10.80
2022-09-28T00:14:36.460Z,10.80
2022-09-28T00:14:45.882Z,10.80
2022-09-28T00:14:55.283Z,10.80
2022-09-28T00:15:04.693Z,10.80
2022-09-28T00:15:14.098Z,10.80
2022-09-28T00:15:32.937Z,10.80
2022-09-28T00:15:42.360Z,10.80
2022-09-28T00:15:51.758Z,10.80
2022-09-28T00:16:01.249Z,10.80
2022-09-28T00:16:10.736Z,10.80
2022-09-28T00:16:20.117Z,10.80
2022-09-28T00:16:29.598Z,10.80
2022-09-28T00:16:38.997Z,10.80
2022-09-28T00:16:48.427Z,10.80
2022-09-28T00:16:57.767Z,10.80
2022-09-28T00:17:07.194Z,10.80
2022-09-28T00:17:16.603Z,10.80
2022-09-28T00:17:26.024Z,10.80
2022-09-28T00:17:35.450Z,10.80
2022-09-28T00:17:44.857Z,10.80
2022-09-28T00:17:54.272Z,10.80
2022-09-28T00:18:13.123Z,10.80
2022-09-28T00:18:22.550Z,10.80
2022-09-28T00:18:31.964Z,10.80
2022-09-28T00:18:41.398Z,10.80
2022-09-28T00:18:50.823Z,10.80
2022-09-28T00:19:00.236Z,10.80
2022-09-28T00:19:09.654Z,10.80
2022-09-28T00:19:19.037Z,10.80
2022-09-28T00:19:28.446Z,10.80
2022-09-28T00:19:37.843Z,10.80
2022-09-28T00:19:47.267Z,10.80
2022-09-28T00:19:56.666Z,10.80
2022-09-28T00:20:06.098Z,10.80
2022-09-28T00:20:15.500Z,10.80
2022-09-28T00:20:24.941Z,10.80
2022-09-28T00:20:34.364Z,10.80
2022-09-28T00:20:53.210Z,10.80
2022-09-28T00:21:02.631Z,10.80
2022-09-28T00:21:12.052Z,10.80
2022-09-28T00:21:21.489Z,10.80
2022-09-28T00:21:30.900Z,10.80
2022-09-28T00:21:40.316Z,10.80
2022-09-28T00:21:49.712Z,10.80
2022-09-28T00:21:59.156Z,10.80
2022-09-28T00:22:08.540Z,10.80
2022-09-28T00:22:17.953Z,10.80
2022-09-28T00:22:27.368Z,10.80
2022-09-28T00:22:36.765Z,10.80
2022-09-28T00:22:46.181Z,10.80
2022-09-28T00:22:55.584Z,10.80
2022-09-28T00:23:04.990Z,10.80
2022-09-28T00:23:14.458Z,10.80
2022-09-28T00:23:33.324Z,10.80
2022-09-28T00:23:42.725Z,10.80
2022-09-28T00:23:52.150Z,10.80
2022-09-28T00:24:01.577Z,10.80
2022-09-28T00:24:11.028Z,10.80
2022-09-28T00:24:24.022Z,10.80
2022-09-28T00:24:29.867Z,10.80
2022-09-28T00:24:39.318Z,10.80
2022-09-28T00:24:48.739Z,10.80
2022-09-28T00:24:58.146Z,10.80
2022-09-28T00:25:07.568Z,10.80
2022-09-28T00:25:17.047Z,10.80
2022-09-28T00:25:26.410Z,10.80
2022-09-28T00:25:35.819Z,10.80
2022-09-28T00:25:45.266Z,10.80
2022-09-28T00:25:54.685Z,10.80
2022-09-28T00:26:04.082Z,10.80
2022-09-28T00:26:22.938Z,10.80
2022-09-28T00:26:32.366Z,10.80
2022-09-28T00:26:41.780Z,10.80
2022-09-28T00:26:51.207Z,10.80
2022-09-28T00:27:00.676Z,10.80
2022-09-28T00:27:10.088Z,10.80
2022-09-28T00:27:19.503Z,10.80
2022-09-28T00:27:28.892Z,10.80
2022-09-28T00:27:38.309Z,10.80
2022-09-28T00:27:47.734Z,10.80
2022-09-28T00:27:57.151Z,10.80
2022-09-28T00:28:06.562Z,10.80
2022-09-28T00:28:15.978Z,10.80
2022-09-28T00:28:25.441Z,10.80
2022-09-28T00:28:34.835Z,10.80
2022-09-28T00:28:44.262Z,10.80
2022-09-28T00:29:03.096Z,10.80
2022-09-28T00:29:12.536Z,10.80
2022-09-28T00:29:21.943Z,10.90
2022-09-28T00:29:31.381Z,10.90
2022-09-28T00:29:40.806Z,10.80
2022-09-28T00:29:50.204Z,10.90
2022-09-28T00:29:59.629Z,10.90
2022-09-28T00:30:09.051Z,10.80
2022-09-28T00:30:18.513Z,10.90
2022-09-28T00:30:27.929Z,10.90
2022-09-28T00:30:37.358Z,10.90
2022-09-28T00:30:46.763Z,10.90
2022-09-28T00:30:56.242Z,10.90
2022-09-28T00:31:05.747Z,10.90
2022-09-28T00:31:15.166Z,10.90
2022-09-28T00:31:24.561Z,10.90
2022-09-28T00:31:43.455Z,10.90
2022-09-28T00:31:52.841Z,10.80
2022-09-28T00:32:02.271Z,10.80
2022-09-28T00:32:11.624Z,10.80
2022-09-28T00:32:21.045Z,10.80
2022-09-28T00:32:30.463Z,10.80
2022-09-28T00:32:39.869Z,10.80
2022-09-28T00:32:49.280Z,10.80
2022-09-28T00:32:58.715Z,10.80
2022-09-28T00:33:08.140Z,10.80
2022-09-28T00:33:17.589Z,10.80
2022-09-28T00:33:26.992Z,10.80
2022-09-28T00:33:36.405Z,10.80
2022-09-28T00:33:45.840Z,10.80
2022-09-28T00:33:55.234Z,10.80
2022-09-28T00:34:04.632Z,10.80
2022-09-28T00:34:23.451Z,10.80
2022-09-28T00:34:32.863Z,10.80
2022-09-28T00:34:42.257Z,10.80
2022-09-28T00:34:51.674Z,10.80
2022-09-28T00:35:01.089Z,10.80
2022-09-28T00:35:10.511Z,10.80
2022-09-28T00:35:19.932Z,10.80
2022-09-28T00:35:29.339Z,10.80
2022-09-28T00:35:38.755Z,10.80
2022-09-28T00:35:48.157Z,10.80
2022-09-28T00:35:57.592Z,10.80
2022-09-28T00:36:07.018Z,10.80
2022-09-28T00:36:16.427Z,10.80
2022-09-28T00:36:25.833Z,10.80
2022-09-28T00:36:35.276Z,10.80
2022-09-28T00:36:44.687Z,10.80
2022-09-28T00:36:54.144Z,10.80
2022-09-28T00:37:12.958Z,10.80
2022-09-28T00:37:22.359Z,10.80
2022-09-28T00:37:31.761Z,10.80
2022-09-28T00:37:41.179Z,10.80
2022-09-28T00:37:50.643Z,10.80
2022-09-28T00:38:00.083Z,10.80
2022-09-28T00:38:09.495Z,10.80
2022-09-28T00:38:18.913Z,10.80
2022-09-28T00:38:28.325Z,10.80
2022-09-28T00:38:37.725Z,10.80
2022-09-28T00:38:47.136Z,10.80
2022-09-28T00:38:56.594Z,10.80
2022-09-28T00:39:05.976Z,10.80
2022-09-28T00:39:15.510Z,10.80
2022-09-28T00:39:24.808Z,10.80
2022-09-28T00:39:34.212Z,10.80
2022-09-28T00:39:53.041Z,10.80
2022-09-28T00:40:02.458Z,10.80
2022-09-28T00:40:11.873Z,10.80
2022-09-28T00:40:21.363Z,10.80
2022-09-28T00:40:30.821Z,10.80
2022-09-28T00:40:40.253Z,10.80
2022-09-28T00:40:49.613Z,10.80
2022-09-28T00:40:59.088Z,10.80
2022-09-28T00:41:08.385Z,10.80
2022-09-28T00:41:17.825Z,10.80
2022-09-28T00:41:27.268Z,10.80
2022-09-28T00:41:36.668Z,10.70
2022-09-28T00:41:46.081Z,10.80
2022-09-28T00:41:55.550Z,10.80
2022-09-28T00:42:04.957Z,10.80
2022-09-28T00:42:14.371Z,10.80
2022-09-28T00:42:33.296Z,10.80
2022-09-28T00:42:42.710Z,10.80
2022-09-28T00:42:52.134Z,10.80
2022-09-28T00:43:01.579Z,10.80
2022-09-28T00:43:11.019Z,10.80
2022-09-28T00:43:20.488Z,10.80
2022-09-28T00:43:29.929Z,10.80
2022-09-28T00:43:39.308Z,10.80
2022-09-28T00:43:48.747Z,10.80
2022-09-28T00:43:58.177Z,10.80
2022-09-28T00:44:07.592Z,10.80
2022-09-28T00:44:17.009Z,10.80
2022-09-28T00:44:26.428Z,10.80
2022-09-28T00:44:35.819Z,10.80
2022-09-28T00:44:45.255Z,10.80
2022-09-28T00:44:54.681Z,10.80
2022-09-28T00:45:04.102Z,10.80
2022-09-28T00:45:22.915Z,10.80
2022-09-28T00:45:32.404Z,10.80
2022-09-28T00:45:41.837Z,10.80
2022-09-28T00:45:51.219Z,10.80
2022-09-28T00:46:00.648Z,10.80
2022-09-28T00:46:10.107Z,10.80
2022-09-28T00:46:19.499Z,10.80
2022-09-28T00:46:28.839Z,10.80
2022-09-28T00:46:38.239Z,10.80
2022-09-28T00:46:47.651Z,10.80
2022-09-28T00:46:57.087Z,10.80
2022-09-28T00:47:06.487Z,10.80
2022-09-28T00:47:15.902Z,10.80
2022-09-28T00:47:25.325Z,10.80
2022-09-28T00:47:34.729Z,10.80
2022-09-28T00:47:44.148Z,10.80
2022-09-28T00:48:02.961Z,10.80
2022-09-28T00:48:12.376Z,10.80
2022-09-28T00:48:21.836Z,10.80
2022-09-28T00:48:31.296Z,10.80
2022-09-28T00:48:40.705Z,10.80
2022-09-28T00:48:50.118Z,10.80
2022-09-28T00:48:59.543Z,10.80
2022-09-28T00:49:08.968Z,10.80
2022-09-28T00:49:18.553Z,10.80
2022-09-28T00:49:27.803Z,10.80
2022-09-28T00:49:37.219Z,10.80
2022-09-28T00:49:46.650Z,10.80
2022-09-28T00:49:56.118Z,10.80
2022-09-28T00:50:05.548Z,10.80
2022-09-28T00:50:14.967Z,10.80
2022-09-28T00:50:24.386Z,10.80
2022-09-28T00:50:43.216Z,10.80
2022-09-28T00:50:52.643Z,10.80
2022-09-28T00:51:02.059Z,11.00
2022-09-28T00:51:11.487Z,10.80
2022-09-28T00:51:20.920Z,10.80
2022-09-28T00:51:30.343Z,10.80
2022-09-28T00:51:39.767Z,10.80
2022-09-28T00:51:49.176Z,10.80
2022-09-28T00:51:58.610Z,10.80
2022-09-28T00:52:08.013Z,10.80
2022-09-28T00:52:17.440Z,10.80
2022-09-28T00:52:26.869Z,10.80
2022-09-28T00:52:36.287Z,10.80
2022-09-28T00:52:45.703Z,10.80
2022-09-28T00:52:56.139Z,10.80
2022-09-28T00:53:04.607Z,10.80
2022-09-28T00:53:23.474Z,10.80
2022-09-28T00:53:32.906Z,10.80
2022-09-28T00:53:42.314Z,10.80
2022-09-28T00:53:51.779Z,10.80
2022-09-28T00:54:01.211Z,10.80
2022-09-28T00:54:10.636Z,10.80
2022-09-28T00:54:20.048Z,10.80
2022-09-28T00:54:29.676Z,10.80
2022-09-28T00:54:39.097Z,10.80
2022-09-28T00:54:48.522Z,10.80
2022-09-28T00:54:57.940Z,10.80
2022-09-28T00:55:07.358Z,10.80
2022-09-28T00:55:16.779Z,10.80
2022-09-28T00:55:26.212Z,10.80
2022-09-28T00:55:35.638Z,10.80
2022-09-28T00:55:45.073Z,10.80
2022-09-28T00:55:54.494Z,10.80
2022-09-28T00:56:13.382Z,10.80
2022-09-28T00:56:22.793Z,10.80
2022-09-28T00:56:32.188Z,10.80
2022-09-28T00:56:41.607Z,10.80
2022-09-28T00:56:51.024Z,10.80
2022-09-28T00:57:00.416Z,10.80
2022-09-28T00:57:09.838Z,10.80
2022-09-28T00:57:19.247Z,10.80
2022-09-28T00:57:28.674Z,10.80
2022-09-28T00:57:38.073Z,10.80
2022-09-28T00:57:47.474Z,10.80
2022-09-28T00:57:56.917Z,10.80
2022-09-28T00:58:06.328Z,10.80
2022-09-28T00:58:15.740Z,10.80
2022-09-28T00:58:25.178Z,10.80
2022-09-28T00:58:34.611Z,10.80
2022-09-28T00:58:53.411Z,10.80
2022-09-28T00:59:02.849Z,10.80
2022-09-28T00:59:12.252Z,10.80
2022-09-28T00:59:21.686Z,10.80
2022-09-28T00:59:31.092Z,10.80
2022-09-28T00:59:40.545Z,10.80
2022-09-28T00:59:49.954Z,10.80
2022-09-28T00:59:59.359Z,10.80
2022-09-28T01:00:08.798Z,10.80
2022-09-28T01:00:18.229Z,10.80
2022-09-28T01:00:27.638Z,10.80
2022-09-28T01:00:37.078Z,10.80
2022-09-28T01:00:46.571Z,10.80
2022-09-28T01:00:55.984Z,10.80
2022-09-28T01:01:05.324Z,10.80
2022-09-28T01:01:14.817Z,10.80
2022-09-28T01:01:24.244Z,10.80
2022-09-28T01:01:43.113Z,10.80
2022-09-28T01:01:52.540Z,10.80
2022-09-28T01:02:02.018Z,10.80
2022-09-28T01:02:11.530Z,10.80
2022-09-28T01:02:20.993Z,10.70
2022-09-28T01:02:30.436Z,10.70
2022-09-28T01:02:39.869Z,10.70
2022-09-28T01:02:49.301Z,10.70
2022-09-28T01:02:58.774Z,10.70
2022-09-28T01:03:08.197Z,10.70
2022-09-28T01:03:17.617Z,10.70
2022-09-28T01:03:27.079Z,10.70
2022-09-28T01:03:36.526Z,10.70
2022-09-28T01:03:45.973Z,10.70
2022-09-28T01:03:55.416Z,10.70
2022-09-28T01:04:04.844Z,10.70
2022-09-28T01:04:14.314Z,10.70
2022-09-28T01:04:33.230Z,10.70
2022-09-28T01:04:42.651Z,10.70
2022-09-28T01:04:52.089Z,10.70
2022-09-28T01:05:01.523Z,10.70
2022-09-28T01:05:10.915Z,10.70
2022-09-28T01:05:20.391Z,10.70
2022-09-28T01:05:29.814Z,10.70
2022-09-28T01:05:39.233Z,10.70
2022-09-28T01:05:48.674Z,10.70
2022-09-28T01:05:58.138Z,10.70
2022-09-28T01:06:07.593Z,10.70
2022-09-28T01:06:17.022Z,10.70
2022-09-28T01:06:26.471Z,10.70
2022-09-28T01:06:35.971Z,10.60
2022-09-28T01:06:45.394Z,10.70
2022-09-28T01:06:54.816Z,10.70
2022-09-28T01:07:04.232Z,10.70
2022-09-28T01:07:23.168Z,10.70
2022-09-28T01:07:32.588Z,10.70
2022-09-28T01:07:42.011Z,10.70
2022-09-28T01:07:51.437Z,10.70
2022-09-28T01:08:00.855Z,10.60
2022-09-28T01:08:10.273Z,10.70
2022-09-28T01:08:19.728Z,10.70
2022-09-28T01:08:29.191Z,10.60
2022-09-28T01:08:38.608Z,10.60
2022-09-28T01:08:48.051Z,10.60
2022-09-28T01:08:57.471Z,10.70
2022-09-28T01:09:06.932Z,10.60
2022-09-28T01:09:16.470Z,10.60
2022-09-28T01:09:25.749Z,10.60
2022-09-28T01:09:35.203Z,10.60
2022-09-28T01:09:44.618Z,10.60
2022-09-28T01:10:03.477Z,10.60
2022-09-28T01:10:12.883Z,10.60
2022-09-28T01:10:22.301Z,10.60
2022-09-28T01:10:31.746Z,10.60
2022-09-28T01:10:41.158Z,10.60
2022-09-28T01:10:50.608Z,10.60
2022-09-28T01:11:00.074Z,10.60
2022-09-28T01:11:09.479Z,10.60
2022-09-28T01:11:18.894Z,10.60
2022-09-28T01:11:28.316Z,10.70
2022-09-28T01:11:37.739Z,10.60
2022-09-28T01:11:47.212Z,10.60
2022-09-28T01:11:56.656Z,10.60
2022-09-28T01:12:06.107Z,10.60
2022-09-28T01:12:15.545Z,10.60
2022-09-28T01:12:24.961Z,10.60
2022-09-28T01:12:34.357Z,10.60
2022-09-28T01:12:53.142Z,10.60
2022-09-28T01:13:02.560Z,10.60
2022-09-28T01:13:11.987Z,10.60
2022-09-28T01:13:21.417Z,10.60
2022-09-28T01:13:31.238Z,10.60
2022-09-28T01:13:40.689Z,10.60
2022-09-28T01:13:50.103Z,10.60
2022-09-28T01:13:59.608Z,10.60
2022-09-28T01:14:09.015Z,10.60
2022-09-28T01:14:18.445Z,10.60
2022-09-28T01:14:27.866Z,10.60
2022-09-28T01:14:37.284Z,10.60
2022-09-28T01:14:46.708Z,10.60
2022-09-28T01:14:56.123Z,10.60
2022-09-28T01:15:05.562Z,10.60
2022-09-28T01:15:14.977Z,10.60
2022-09-28T01:15:24.386Z,10.60
2022-09-28T01:15:43.228Z,10.60
2022-09-28T01:15:52.732Z,10.60
2022-09-28T01:16:02.151Z,10.60
2022-09-28T01:16:11.481Z,10.60
2022-09-28T01:16:20.962Z,10.60
2022-09-28T01:16:30.456Z,10.60
2022-09-28T01:16:39.763Z,10.60
2022-09-28T01:16:49.224Z,10.60
2022-09-28T01:16:58.522Z,10.60
2022-09-28T01:17:07.942Z,10.60
2022-09-28T01:17:17.378Z,10.70
2022-09-28T01:17:26.792Z,10.60
2022-09-28T01:17:36.218Z,10.70
2022-09-28T01:17:45.660Z,10.70
2022-09-28T01:17:55.083Z,10.70
2022-09-28T01:18:04.478Z,10.70
2022-09-28T01:18:23.293Z,10.70
2022-09-28T01:18:32.742Z,10.80
2022-09-28T01:18:42.152Z,10.80
2022-09-28T01:18:51.577Z,10.80
2022-09-28T01:19:00.988Z,10.80
2022-09-28T01:19:10.438Z,10.90
2022-09-28T01:19:19.786Z,10.90
2022-09-28T01:19:29.251Z,10.90
2022-09-28T01:19:38.644Z,10.90
2022-09-28T01:19:48.074Z,11.00
2022-09-28T01:19:57.489Z,11.00
2022-09-28T01:20:06.908Z,11.00
2022-09-28T01:20:16.333Z,11.00
2022-09-28T01:20:25.753Z,11.00
2022-09-28T01:20:35.172Z,11.10
2022-09-28T01:20:44.599Z,11.10
2022-09-28T01:21:03.538Z,11.10
2022-09-28T01:21:12.962Z,11.20
2022-09-28T01:21:22.376Z,11.20
2022-09-28T01:21:31.792Z,11.20
2022-09-28T01:21:41.222Z,11.20
2022-09-28T01:21:50.635Z,11.30
2022-09-28T01:22:00.072Z,11.30
2022-09-28T01:22:09.482Z,11.30
2022-09-28T01:22:18.896Z,11.30
2022-09-28T01:22:28.299Z,11.30
2022-09-28T01:22:37.701Z,11.40
2022-09-28T01:22:47.124Z,11.40
2022-09-28T01:22:56.547Z,11.40
2022-09-28T01:23:06.003Z,11.40
2022-09-28T01:23:15.431Z,11.50
2022-09-28T01:23:24.850Z,11.50
2022-09-28T01:23:34.516Z,11.50
2022-09-28T01:23:53.317Z,11.60
2022-09-28T01:24:02.732Z,11.60
2022-09-28T01:24:12.159Z,11.60
2022-09-28T01:24:21.586Z,11.60
2022-09-28T01:24:30.996Z,11.70
2022-09-28T01:24:40.421Z,11.70
2022-09-28T01:24:49.836Z,11.70
2022-09-28T01:24:59.339Z,11.70
2022-09-28T01:25:08.734Z,11.70
2022-09-28T01:25:18.167Z,11.70
2022-09-28T01:25:27.567Z,11.80
2022-09-28T01:25:36.972Z,11.80
2022-09-28T01:25:46.396Z,11.80
2022-09-28T01:25:55.851Z,11.80
2022-09-28T01:26:05.252Z,11.80
2022-09-28T01:26:14.664Z,11.80
2022-09-28T01:26:24.125Z,11.90
2022-09-28T01:26:42.963Z,11.90
2022-09-28T01:26:52.375Z,11.90
2022-09-28T01:27:01.795Z,11.90
2022-09-28T01:27:11.226Z,11.90
2022-09-28T01:27:20.643Z,11.90
2022-09-28T01:27:30.023Z,11.90
2022-09-28T01:27:39.484Z,12.00
2022-09-28T01:27:48.875Z,12.00
2022-09-28T01:27:58.285Z,12.00
2022-09-28T01:28:07.706Z,12.00
2022-09-28T01:28:17.128Z,12.00
2022-09-28T01:28:26.558Z,12.00
2022-09-28T01:28:36.012Z,12.00
2022-09-28T01:28:45.446Z,12.00
2022-09-28T01:28:54.844Z,12.00
2022-09-28T01:29:04.249Z,12.00
2022-09-28T01:29:23.077Z,12.10
2022-09-28T01:29:32.470Z,12.10
2022-09-28T01:29:41.890Z,12.10
2022-09-28T01:29:51.474Z,12.10
2022-09-28T01:30:00.876Z,12.10
2022-09-28T01:30:10.278Z,12.10
2022-09-28T01:30:19.685Z,12.10
2022-09-28T01:30:29.093Z,12.10
2022-09-28T01:30:38.510Z,12.10
2022-09-28T01:30:47.900Z,12.10
2022-09-28T01:30:57.357Z,12.10
2022-09-28T01:31:06.770Z,12.10
2022-09-28T01:31:16.263Z,12.10
2022-09-28T01:31:25.656Z,12.20
2022-09-28T01:31:35.108Z,12.20
2022-09-28T01:31:44.524Z,12.20
2022-09-28T01:32:03.384Z,12.20
2022-09-28T01:32:12.719Z,12.20
2022-09-28T01:32:22.146Z,12.20
2022-09-28T01:32:31.560Z,12.20
2022-09-28T01:32:40.970Z,12.30
2022-09-28T01:32:50.368Z,12.20
2022-09-28T01:32:59.750Z,12.30
2022-09-28T01:33:09.176Z,12.30
2022-09-28T01:33:18.601Z,12.30
2022-09-28T01:33:28.004Z,12.30
2022-09-28T01:33:37.434Z,12.30
2022-09-28T01:33:46.827Z,12.30
2022-09-28T01:33:56.332Z,12.30
2022-09-28T01:34:05.748Z,12.30
2022-09-28T01:34:15.131Z,12.30
2022-09-28T01:34:24.558Z,12.40
2022-09-28T01:34:43.388Z,12.40
2022-09-28T01:34:52.799Z,12.40
2022-09-28T01:35:02.209Z,12.40
2022-09-28T01:35:11.631Z,12.40
2022-09-28T01:35:21.049Z,12.50
2022-09-28T01:35:30.454Z,12.40
2022-09-28T01:35:39.879Z,12.40
2022-09-28T01:35:49.296Z,12.50
2022-09-28T01:35:58.717Z,12.50
2022-09-28T01:36:08.150Z,12.50
2022-09-28T01:36:17.570Z,12.50
2022-09-28T01:36:26.989Z,12.50
2022-09-28T01:36:36.401Z,12.50
2022-09-28T01:36:45.823Z,12.50
2022-09-28T01:36:55.249Z,12.50
2022-09-28T01:37:04.660Z,12.50
2022-09-28T01:37:14.081Z,12.50
2022-09-28T01:37:32.922Z,12.50
2022-09-28T01:37:42.302Z,12.50
2022-09-28T01:37:51.717Z,12.50
2022-09-28T01:38:01.157Z,12.50
2022-09-28T01:38:10.543Z,12.50
2022-09-28T01:38:19.948Z,12.50
2022-09-28T01:38:29.352Z,12.50
2022-09-28T01:38:38.795Z,12.50
2022-09-28T01:38:48.224Z,12.50
2022-09-28T01:38:57.637Z,12.50
2022-09-28T01:39:07.040Z,12.50
2022-09-28T01:39:16.560Z,12.50
2022-09-28T01:39:25.870Z,12.50
2022-09-28T01:39:35.296Z,12.50
2022-09-28T01:39:44.683Z,12.50
2022-09-28T01:39:54.103Z,12.50
2022-09-28T01:40:12.927Z,12.50
2022-09-28T01:40:22.405Z,12.50
2022-09-28T01:40:31.791Z,12.50
2022-09-28T01:40:41.178Z,12.50
2022-09-28T01:40:50.683Z,12.50
2022-09-28T01:41:00.065Z,12.50
2022-09-28T01:41:09.394Z,12.50
2022-09-28T01:41:18.806Z,12.50
2022-09-28T01:41:28.206Z,12.50
2022-09-28T01:41:37.600Z,12.50
2022-09-28T01:41:47.027Z,12.50
2022-09-28T01:41:56.456Z,12.50
2022-09-28T01:42:05.847Z,12.50
2022-09-28T01:42:15.241Z,12.60
2022-09-28T01:42:24.650Z,12.60
2022-09-28T01:42:43.459Z,12.60
2022-09-28T01:42:52.900Z,12.60
2022-09-28T01:43:02.294Z,12.60
2022-09-28T01:43:11.698Z,12.70
2022-09-28T01:43:21.124Z,12.60
2022-09-28T01:43:30.536Z,12.60
2022-09-28T01:43:40.000Z,12.60
2022-09-28T01:43:49.427Z,12.60
2022-09-28T01:43:58.818Z,12.60
2022-09-28T01:44:08.276Z,12.60
2022-09-28T01:44:17.695Z,12.60
2022-09-28T01:44:27.130Z,12.60
2022-09-28T01:44:36.558Z,12.60
2022-09-28T01:44:45.986Z,12.60
2022-09-28T01:44:55.392Z,12.60
2022-09-28T01:45:04.809Z,12.60
2022-09-28T01:45:14.195Z,12.60
2022-09-28T01:45:33.050Z,12.70
2022-09-28T01:45:42.440Z,12.70
2022-09-28T01:45:51.875Z,12.70
2022-09-28T01:46:01.262Z,12.70
2022-09-28T01:46:10.745Z,12.70
2022-09-28T01:46:20.160Z,12.70
2022-09-28T01:46:29.498Z,12.70
2022-09-28T01:46:38.950Z,12.70
2022-09-28T01:46:48.358Z,12.70
2022-09-28T01:46:57.776Z,12.70
2022-09-28T01:47:07.182Z,12.70
2022-09-28T01:47:16.576Z,12.70
2022-09-28T01:47:25.967Z,12.70
2022-09-28T01:47:35.376Z,12.70
2022-09-28T01:47:44.778Z,12.70
2022-09-28T01:47:54.206Z,12.70
2022-09-28T01:48:13.010Z,12.70
2022-09-28T01:48:22.421Z,12.70
2022-09-28T01:48:31.823Z,12.70
2022-09-28T01:48:45.208Z,12.70
2022-09-28T01:48:54.600Z,12.70
2022-09-28T01:49:04.002Z,12.70
2022-09-28T01:49:13.507Z,12.70
2022-09-28T01:49:22.805Z,12.70
2022-09-28T01:49:32.200Z,12.70
2022-09-28T01:49:41.593Z,12.70
2022-09-28T01:49:51.009Z,12.70
2022-09-28T01:50:00.423Z,12.70
2022-09-28T01:50:09.814Z,12.70
2022-09-28T01:50:19.242Z,12.70
2022-09-28T01:50:28.645Z,12.70
2022-09-28T01:50:38.069Z,12.80
2022-09-28T01:50:47.477Z,12.80
2022-09-28T01:50:56.889Z,12.80
2022-09-28T01:51:06.345Z,12.80
2022-09-28T01:51:15.749Z,12.80
2022-09-28T01:51:25.168Z,12.80
2022-09-28T01:51:34.593Z,12.80
2022-09-28T01:51:53.432Z,12.80
2022-09-28T01:52:02.858Z,12.80
2022-09-28T01:52:12.281Z,12.80
2022-09-28T01:52:21.715Z,12.80
2022-09-28T01:52:31.118Z,12.80
2022-09-28T01:52:40.534Z,12.80
2022-09-28T01:52:49.972Z,12.80
2022-09-28T01:52:59.380Z,12.80
2022-09-28T01:53:08.801Z,12.80
2022-09-28T01:53:18.209Z,12.80
2022-09-28T01:53:27.625Z,12.80
2022-09-28T01:53:37.023Z,12.80
2022-09-28T01:53:46.464Z,12.80
2022-09-28T01:53:55.851Z,12.80
2022-09-28T01:54:05.244Z,12.80
2022-09-28T01:54:14.658Z,12.80
2022-09-28T01:54:33.499Z,12.80
2022-09-28T01:54:42.899Z,12.80
2022-09-28T01:54:52.328Z,12.80
2022-09-28T01:55:01.745Z,12.80
2022-09-28T01:55:11.172Z,12.80
2022-09-28T01:55:20.591Z,12.80
2022-09-28T01:55:30.020Z,12.80
2022-09-28T01:55:39.423Z,12.80
2022-09-28T01:55:48.833Z,12.90
2022-09-28T01:55:58.237Z,12.80
2022-09-28T01:56:07.689Z,12.80
2022-09-28T01:56:17.108Z,12.80
2022-09-28T01:56:26.526Z,12.80
2022-09-28T01:56:35.979Z,12.80
2022-09-28T01:56:45.388Z,12.80
2022-09-28T01:56:54.806Z,12.80
2022-09-28T01:57:04.254Z,12.80
2022-09-28T01:57:23.066Z,12.80
2022-09-28T01:57:32.480Z,12.80
2022-09-28T01:57:41.904Z,12.80
2022-09-28T01:57:51.341Z,12.80
2022-09-28T01:58:00.757Z,12.80
2022-09-28T01:58:10.163Z,12.80
2022-09-28T01:58:19.564Z,12.80
2022-09-28T01:58:28.961Z,12.80
2022-09-28T01:58:38.365Z,12.80
2022-09-28T01:58:47.783Z,12.80
2022-09-28T01:58:57.202Z,12.80
2022-09-28T01:59:06.594Z,12.80
2022-09-28T01:59:16.058Z,12.80
2022-09-28T01:59:25.430Z,12.80
2022-09-28T01:59:34.853Z,12.80
2022-09-28T01:59:44.280Z,12.80
2022-09-28T02:00:03.097Z,12.80
2022-09-28T02:00:12.477Z,12.80
2022-09-28T02:00:21.889Z,12.80
2022-09-28T02:00:31.358Z,12.80
2022-09-28T02:00:40.843Z,12.80
2022-09-28T02:00:50.225Z,12.80
2022-09-28T02:00:59.673Z,12.80
2022-09-28T02:01:09.069Z,12.80
2022-09-28T02:01:18.527Z,12.80
2022-09-28T02:01:27.846Z,12.80
2022-09-28T02:01:37.289Z,12.80
2022-09-28T02:01:46.760Z,12.80
2022-09-28T02:01:56.168Z,12.80
2022-09-28T02:02:05.594Z,12.80
2022-09-28T02:02:15.051Z,12.80
2022-09-28T02:02:24.407Z,12.80
2022-09-28T02:02:43.165Z,12.80
2022-09-28T02:02:52.601Z,12.80
2022-09-28T02:03:02.050Z,12.80
2022-09-28T02:03:11.488Z,12.80
2022-09-28T02:03:20.894Z,12.80
2022-09-28T02:03:33.159Z,12.80
2022-09-28T02:03:40.301Z,12.80
2022-09-28T02:03:53.783Z,12.80
2022-09-28T02:04:03.226Z,12.80
2022-09-28T02:04:12.618Z,12.80
2022-09-28T02:04:22.042Z,12.80
2022-09-28T02:04:31.473Z,12.80
2022-09-28T02:04:40.883Z,12.80
2022-09-28T02:04:50.297Z,12.80
2022-09-28T02:04:59.702Z,12.80
2022-09-28T02:05:09.087Z,12.80
2022-09-28T02:05:18.516Z,12.80
2022-09-28T02:05:27.918Z,12.80
2022-09-28T02:05:37.348Z,12.80
2022-09-28T02:05:46.781Z,12.80
2022-09-28T02:05:56.201Z,12.80
2022-09-28T02:06:05.615Z,12.80
2022-09-28T02:06:15.032Z,12.80
2022-09-28T02:06:24.458Z,12.80
2022-09-28T02:06:43.299Z,12.80
2022-09-28T02:06:52.718Z,12.80
2022-09-28T02:07:02.150Z,12.80
2022-09-28T02:07:11.577Z,12.80
2022-09-28T02:07:20.983Z,12.80
2022-09-28T02:07:30.414Z,12.80
2022-09-28T02:07:39.826Z,12.80
2022-09-28T02:07:49.253Z,12.80
2022-09-28T02:07:58.684Z,12.80
2022-09-28T02:08:08.098Z,12.80
2022-09-28T02:08:17.496Z,12.80
2022-09-28T02:08:26.962Z,12.80
2022-09-28T02:08:36.355Z,12.80
2022-09-28T02:08:45.770Z,12.80